Flood From: 19-02-2018 10:30 Until: 20-02-2018 06:00 warning for: Flood Level: Yellow info button

Although rather usual in this region, locally or potentially dangerous phenomena are expected. (such as local winds, summer thunderstorms, rising streams or high waves) Be aware and pay attention to the latest weather updates, especially if you carry out activities exposed to weather or close to a stream or shoreline. 


Meteo18 Weather Cam more information Meteo18 Weather Cam


Thunder radar more information blitzortung!


Rain radar more information rain snow radar


Visit our other weather sites:

Template documentation
and downloads

And another site



Weather Underground History page Text

Daily Summary for November 19, 2017 Units:  Metric    English   Both
« Previous Day
Next Day »
Daily Weekly Monthly Yearly Custom
  High: Low: Average:
Temperature: -17.8 °C -16.4 °C -14.8 °C
Dew Point: -17.8 °C -16.8 °C -15.3 °C
Humidity: Humidity % 88 % 93 %
Wind Speed: 0 km/h 0 km/h 2.9 km/h
Wind Gust: 0 km/h - -
Wind:- - WSW
Pressure: 0 hPa 34659.1 hPa -
Precipitation: 0 mm    
Historical Graphs
 
 
Tabular Data for November 19, 2017
Time Temperature Dew Point Pressure Wind Wind Speed Wind Gust Humidity Rainfall Rate (Hourly)
-17.8 °C -17.8 °C 0 hPa Calm     Humidity % 0 mm
00:02 -15.2 °C -15.9 °C 34693 hPa Calm   2.6 km/h 91 % 0 mm
00:07 -15.2 °C -15.9 °C 34693 hPa Calm   2.6 km/h 91 % 0 mm
00:12 -15.2 °C -15.9 °C 34693 hPa WSW 2.6 km/h 2.6 km/h 91 % 0 mm
00:17 -15.2 °C -15.8 °C 34693 hPa WSW 2.6 km/h 2.6 km/h 92 % 0 mm
00:22 -15.1 °C -15.8 °C 34693 hPa WSW 2.6 km/h 2.6 km/h 92 % 0 mm
00:32 -15.1 °C -15.8 °C 34682.8 hPa Calm   5.1 km/h 91 % 0 mm
00:37 -15.1 °C -15.8 °C 34682.8 hPa SSE 2.6 km/h 10.3 km/h 91 % 0 mm
00:42 -15.1 °C -15.8 °C 34682.8 hPa South 2.6 km/h 10.3 km/h 91 % 0 mm
00:52 -15.1 °C -15.6 °C 34682.8 hPa SW 7.7 km/h 10.3 km/h 93 % 0 mm
00:57 -14.8 °C -15.6 °C 34682.8 hPa WNW 10.3 km/h 18.2 km/h 91 % 0 mm
01:02 -14.7 °C -15.6 °C 34682.8 hPa West 12.9 km/h 18.2 km/h 89 % 0 mm
01:07 -14.7 °C -15.6 °C 34682.8 hPa West 10.3 km/h 23.3 km/h 89 % 0 mm
01:12 -14.6 °C -15.6 °C 34682.8 hPa West 5.1 km/h 23.3 km/h 88 % 0 mm
01:17 -14.7 °C -15.7 °C 34669.3 hPa SW 7.7 km/h 23.3 km/h 88 % 0 mm
01:22 -14.7 °C -15.6 °C 34669.3 hPa SW 5.1 km/h 15.6 km/h 89 % 0 mm
01:27 -14.7 °C -15.7 °C 34682.8 hPa West 7.7 km/h 12.9 km/h 89 % 0 mm
01:32 -14.7 °C -15.7 °C 34682.8 hPa WNW 7.7 km/h 12.9 km/h 89 % 0 mm
01:37 -14.8 °C -15.7 °C 34682.8 hPa WSW 7.7 km/h 23.3 km/h 89 % 0 mm
01:42 -14.8 °C -15.7 °C 34682.8 hPa SW 2.6 km/h 23.3 km/h 89 % 0 mm
01:47 -14.7 °C -15.7 °C 34682.8 hPa WNW 5.1 km/h 23.3 km/h 89 % 0 mm
01:52 -14.7 °C -15.7 °C 34669.3 hPa WNW 10.3 km/h 23.3 km/h 89 % 0 mm
02:02 -14.8 °C -15.7 °C 34669.3 hPa WSW 5.1 km/h 18.2 km/h 89 % 0 mm
02:07 -14.8 °C -15.7 °C 34669.3 hPa Calm   12.9 km/h 89 % 0 mm
02:12 -14.8 °C -15.7 °C 34669.3 hPa West 2.6 km/h 7.7 km/h 89 % 0 mm
02:17 -14.8 °C -15.7 °C 34669.3 hPa Calm   7.7 km/h 89 % 0 mm
02:22 -14.8 °C -15.6 °C 34669.3 hPa WSW 2.6 km/h 5.1 km/h 90 % 0 mm
02:32 -14.8 °C -15.7 °C 34669.3 hPa Calm   2.6 km/h 89 % 0 mm
02:37 -14.8 °C -15.7 °C 34682.8 hPa Calm   2.6 km/h 89 % 0 mm
02:42 -14.8 °C -15.6 °C 34669.3 hPa Calm   5.1 km/h 90 % 0 mm
02:47 -14.7 °C -15.5 °C 34669.3 hPa Calm   5.1 km/h 90 % 0 mm
02:52 -14.9 °C -15.8 °C 34659.1 hPa WSW 10.3 km/h 15.6 km/h 90 % 0 mm
02:57 -14.6 °C -15.4 °C 34659.1 hPa WSW 7.7 km/h 15.6 km/h 90 % 0 mm
03:02 -14.6 °C -15.4 °C 34659.1 hPa WSW 7.7 km/h 12.9 km/h 90 % 0 mm
03:07 -14.6 °C -15.4 °C 34659.1 hPa WSW 7.7 km/h 10.3 km/h 90 % 0 mm
09:37 -15.1 °C -15.4 °C 34659.1 hPa West 7.7 km/h 20.8 km/h 96 % 0 mm
09:42 -15.1 °C -15.4 °C 34669.3 hPa West 12.9 km/h 20.8 km/h 96 % 0 mm
09:47 -15.1 °C -15.4 °C 34669.3 hPa West 7.7 km/h 20.8 km/h 96 % 0 mm
09:52 -15.1 °C -15.4 °C 34669.3 hPa West 7.7 km/h 23.3 km/h 96 % 0 mm
09:57 -15.1 °C -15.4 °C 34669.3 hPa WSW 12.9 km/h 23.3 km/h 96 % 0 mm
10:02 -15 °C -15.3 °C 34669.3 hPa WNW 10.3 km/h 23.3 km/h 96 % 0 mm
10:12 -14.9 °C -15.3 °C 34682.8 hPa West 2.6 km/h 20.8 km/h 96 % 0 mm
10:17 -15 °C -15.3 °C 34682.8 hPa WNW 10.3 km/h 20.8 km/h 96 % 0 mm
10:22 -14.9 °C -15.3 °C 34682.8 hPa West 5.1 km/h 15.6 km/h 96 % 0 mm
10:32 -14.9 °C -15.3 °C 34682.8 hPa West 10.3 km/h 15.6 km/h 96 % 0 mm
10:52 -14.9 °C -15.3 °C 34682.8 hPa WNW 15.6 km/h 20.8 km/h 96 % 0 mm
11:02 -14.9 °C -15.2 °C 34693 hPa WNW 10.3 km/h 20.8 km/h 96 % 0 mm
11:12 -14.9 °C -15.2 °C 34682.8 hPa NW 12.9 km/h 18.2 km/h 96 % 0 mm
11:17 -14.9 °C -15.2 °C 34693 hPa WNW 7.7 km/h 15.6 km/h 96 % 0 mm
11:37 -14.8 °C -15.2 °C 34693 hPa West 5.1 km/h 10.3 km/h 96 % 0 mm
11:42 -14.8 °C -15.1 °C 34682.8 hPa WSW 2.6 km/h 10.3 km/h 96 % 0 mm
11:52 -14.8 °C -15.1 °C 34682.8 hPa Calm   10.3 km/h 96 % 0 mm
12:02 -14.7 °C -15 °C 34682.8 hPa SSW 2.6 km/h 5.1 km/h 96 % 0 mm
12:12 -14.6 °C -14.9 °C 34669.3 hPa West 7.7 km/h 7.7 km/h 96 % 0 mm
12:22 -14.5 °C -14.8 °C 34682.8 hPa West 5.1 km/h 10.3 km/h 96 % 0 mm
12:32 -14.4 °C -14.8 °C 34682.8 hPa Calm   10.3 km/h 95 % 0 mm
12:37 -14.4 °C -14.7 °C 34682.8 hPa Calm   10.3 km/h 96 % 0 mm
12:42 -14.3 °C -14.7 °C 34682.8 hPa WNW 2.6 km/h 7.7 km/h 95 % 0 mm
12:47 -14.3 °C -14.7 °C 34682.8 hPa Calm   7.7 km/h 95 % 0 mm
13:02 -14.3 °C -14.7 °C 34682.8 hPa Calm   10.3 km/h 95 % 0 mm
13:07 -14.2 °C -14.6 °C 34682.8 hPa WNW 2.6 km/h 12.9 km/h 95 % 0 mm
13:12 -14.2 °C -14.6 °C 34682.8 hPa Calm   12.9 km/h 95 % 0 mm
13:17 -14.1 °C -14.5 °C 34682.8 hPa Calm   10.3 km/h 95 % 0 mm
13:22 -14.1 °C -14.5 °C 34682.8 hPa Calm   7.7 km/h 95 % 0 mm
13:27 -14.1 °C -14.6 °C 34682.8 hPa Calm   5.1 km/h 94 % 0 mm
13:42 -14 °C -14.5 °C 34682.8 hPa Calm   2.6 km/h 94 % 0 mm
13:52 -14.1 °C -14.6 °C 34682.8 hPa NW 5.1 km/h 7.7 km/h 94 % 0 mm
13:57 -14.1 °C -14.6 °C 34682.8 hPa NW 7.7 km/h 7.7 km/h 94 % 0 mm
14:02 -14.1 °C -14.6 °C 34682.8 hPa NNW 5.1 km/h 10.3 km/h 94 % 0 mm
14:12 -14 °C -14.5 °C 34682.8 hPa NW 5.1 km/h 10.3 km/h 94 % 0 mm
14:17 -14 °C -14.5 °C 34682.8 hPa North 5.1 km/h 7.7 km/h 94 % 0 mm
14:22 -14.1 °C -14.4 °C 34682.8 hPa NW 2.6 km/h 10.3 km/h 95 % 0 mm
14:27 -14 °C -14.4 °C 34682.8 hPa NW 2.6 km/h 10.3 km/h 95 % 0 mm
14:37 -14 °C -14.4 °C 34682.8 hPa Calm   7.7 km/h 95 % 0 mm
14:42 -14 °C -14.4 °C 34682.8 hPa Calm   7.7 km/h 95 % 0 mm
14:47 -13.9 °C -14.3 °C 34682.8 hPa Calm   5.1 km/h 95 % 0 mm
14:57 -13.9 °C -14.3 °C 34682.8 hPa NW 5.1 km/h 5.1 km/h 95 % 0 mm
15:02 -13.9 °C -14.4 °C 34682.8 hPa NNW 2.6 km/h 7.7 km/h 94 % 0 mm
15:12 -13.9 °C -14.4 °C 34682.8 hPa North 5.1 km/h 10.3 km/h 94 % 0 mm
15:17 -13.9 °C -14.4 °C 34682.8 hPa NNE 5.1 km/h 10.3 km/h 94 % 0 mm
15:27 -13.9 °C -14.4 °C 34682.8 hPa NNW 7.7 km/h 15.6 km/h 94 % 0 mm
15:32 -13.9 °C -14.4 °C 34682.8 hPa North 5.1 km/h 10.3 km/h 94 % 0 mm
15:37 -13.9 °C -14.4 °C 34682.8 hPa NE 12.9 km/h 12.9 km/h 94 % 0 mm
15:47 -14 °C -14.5 °C 34682.8 hPa Calm   18.2 km/h 94 % 0 mm
15:52 -14 °C -14.5 °C 34693 hPa NE 2.6 km/h 18.2 km/h 94 % 0 mm
15:57 -14 °C -14.5 °C 34693 hPa NNW 2.6 km/h 15.6 km/h 94 % 0 mm
16:02 -14.1 °C -14.6 °C 34693 hPa North 5.1 km/h 5.1 km/h 94 % 0 mm
16:07 -14.1 °C -14.6 °C 34693 hPa Calm   7.7 km/h 94 % 0 mm
16:17 -14.1 °C -14.6 °C 34693 hPa NNE 2.6 km/h 7.7 km/h 94 % 0 mm
16:27 -14.1 °C -14.6 °C 34693 hPa Calm   5.1 km/h 94 % 0 mm
16:32 -14.1 °C -14.6 °C 34693 hPa Calm   2.6 km/h 94 % 0 mm
16:37 -14.1 °C -14.7 °C 34693 hPa Calm   2.6 km/h 93 % 0 mm
16:42 -14.1 °C -14.7 °C 34693 hPa WNW 2.6 km/h 2.6 km/h 93 % 0 mm
16:47 -14.2 °C -14.8 °C 34693 hPa Calm   5.1 km/h 93 % 0 mm
16:57 -14.2 °C -14.8 °C 34703.1 hPa Calm   5.1 km/h 93 % 0 mm
17:27 -14.3 °C -14.9 °C 34703.1 hPa West 2.6 km/h 7.7 km/h 93 % 0 mm
17:32 -14.3 °C -14.9 °C 34703.1 hPa Calm   5.1 km/h 93 % 0 mm
17:37 -14.4 °C -14.9 °C 34703.1 hPa Calm   2.6 km/h 93 % 0 mm
17:52 -14.6 °C -15.1 °C 34703.1 hPa Calm   2.6 km/h 94 % 0 mm
17:57 -14.6 °C -15.1 °C 34703.1 hPa Calm   2.6 km/h 94 % 0 mm
18:07 -14.7 °C -15.2 °C 34716.7 hPa Calm   2.6 km/h 94 % 0 mm
18:12 -14.7 °C -15.2 °C 34716.7 hPa Calm   2.6 km/h 94 % 0 mm
18:17 -14.7 °C -15.2 °C 34716.7 hPa Calm   2.6 km/h 94 % 0 mm
18:27 -14.8 °C -15.3 °C 34716.7 hPa Calm   5.1 km/h 94 % 0 mm
18:42 -14.6 °C -15 °C 34726.8 hPa Calm   2.6 km/h 95 % 0 mm
18:57 -14.7 °C -15.2 °C 34726.8 hPa Calm     94 % 0 mm
19:02 -14.6 °C -15.1 °C 34726.8 hPa Calm     94 % 0 mm
19:17 -14.7 °C -15.2 °C 34726.8 hPa Calm     94 % 0 mm
19:22 -14.7 °C -15.2 °C 34726.8 hPa Calm     94 % 0 mm
19:27 -14.7 °C -15.2 °C 34726.8 hPa Calm     94 % 0 mm
19:37 -14.8 °C -15.3 °C 34726.8 hPa Calm     94 % 0 mm
19:42 -14.8 °C -15.2 °C 34740.4 hPa Calm     95 % 0 mm
19:47 -14.8 °C -15.2 °C 34740.4 hPa Calm     95 % 0 mm
19:52 -14.8 °C -15.2 °C 34740.4 hPa Calm     95 % 0 mm
20:02 -14.8 °C -15.2 °C 34740.4 hPa Calm     95 % 0 mm
20:07 -14.8 °C -15.2 °C 34740.4 hPa Calm     95 % 0 mm
20:17 -14.8 °C -15.2 °C 34740.4 hPa Calm     95 % 0 mm
20:27 -14.8 °C -15.2 °C 34750.5 hPa Calm   2.6 km/h 96 % 0 mm
20:32 -14.8 °C -15.2 °C 34750.5 hPa Calm     96 % 0 mm
20:37 -14.8 °C -15.2 °C 34750.5 hPa Calm     96 % 0 mm
20:47 -14.8 °C -15.2 °C 34750.5 hPa Calm   2.6 km/h 96 % 0 mm
20:57 -14.8 °C -15.2 °C 34760.7 hPa Calm   2.6 km/h 96 % 0 mm
21:02 -14.9 °C -15.2 °C 34760.7 hPa Calm   2.6 km/h 96 % 0 mm
21:07 -14.9 °C -15.2 °C 34760.7 hPa Calm   2.6 km/h 96 % 0 mm
21:12 -14.9 °C -15.2 °C 34760.7 hPa Calm   2.6 km/h 96 % 0 mm
21:22 -14.9 °C -15.3 °C 34760.7 hPa Calm   2.6 km/h 96 % 0 mm
21:32 -15 °C -15.3 °C 34760.7 hPa Calm   2.6 km/h 96 % 0 mm
21:42 -15 °C -15.3 °C 34760.7 hPa Calm   2.6 km/h 96 % 0 mm
21:52 -15.1 °C -15.4 °C 34760.7 hPa Calm   2.6 km/h 96 % 0 mm
21:57 -15.1 °C -15.4 °C 34760.7 hPa Calm   2.6 km/h 96 % 0 mm
22:02 -15.1 °C -15.4 °C 34760.7 hPa Calm   2.6 km/h 96 % 0 mm
22:17 -15.2 °C -15.5 °C 34760.7 hPa Calm   2.6 km/h 96 % 0 mm
22:22 -15.2 °C -15.6 °C 34760.7 hPa SE 2.6 km/h 2.6 km/h 96 % 0 mm
22:27 -15.3 °C -15.7 °C 34760.7 hPa Calm   2.6 km/h 96 % 0 mm
22:32 -15.4 °C -15.7 °C 34760.7 hPa Calm   2.6 km/h 96 % 0 mm
22:37 -15.4 °C -15.8 °C 34760.7 hPa Calm   2.6 km/h 96 % 0 mm
22:52 -15.7 °C -16.1 °C 34760.7 hPa Calm     96 % 0 mm
22:57 -15.8 °C -16.2 °C 34760.7 hPa WNW 2.6 km/h   96 % 0 mm
23:02 -15.9 °C -16.3 °C 34760.7 hPa Calm   2.6 km/h 96 % 0 mm
23:07 -15.9 °C -16.1 °C 34760.7 hPa Calm   2.6 km/h 97 % 0 mm
23:12 -15.8 °C -16 °C 34760.7 hPa Calm   2.6 km/h 97 % 0 mm
23:17 -15.9 °C -16.3 °C 34760.7 hPa Calm   2.6 km/h 96 % 0 mm
23:22 -16.1 °C -16.4 °C 34760.7 hPa Calm   2.6 km/h 96 % 0 mm
23:27 -16.2 °C -16.5 °C 34760.7 hPa Calm   2.6 km/h 96 % 0 mm
23:32 -16.2 °C -16.6 °C 34760.7 hPa Calm     96 % 0 mm
23:37 -16.3 °C -16.6 °C 34760.7 hPa Calm     96 % 0 mm
23:47 -16.4 °C -16.7 °C 34760.7 hPa Calm     96 % 0 mm
23:52 -16.4 °C -16.8 °C 34760.7 hPa Calm     96 % 0 mm
Meteo18
Compliments of Weather Underground - 4 mb

Script developed by  Jim McMurry - jmcmurry@mwt.net Adapted for the template by  Wim van der Kuil - Leuven-Template.eu

You find our weather info also at:

European Weather Network

Weather Underground

Equipment we use:

Weather-station
Davis Vue

Weather-program
Meteobridge

Weather-server
Raspberry PI 2 B+

Provider
1 and 1

Davis Vue

Meteobridge

Raspberry PI 2 B+

1 and 1